首页
METAR-TAF:

METAR-TAF

机场 :

奥尔良, 法国

纬度: 47-59N, 经度: 001-45E, 海拔: 126米

当前天气观测

该预报发布于22分钟前的15:00 UTC
风速16节,风向西
温度 16°C
湿度 63%
气压 1002 hPa
能见度10公里或以上
多云层高于3800英尺
阴天层高于4600英尺

METAR: LFOJ 051500Z AUTO 27016KT 9999 BKN038 OVC046 16/09 Q1002 TEMPO 27013G25KT BECMG 4000 RA

时间: 17:22 (15:22 UTC)

预报

该预报发布于1小时和22分钟前的14:00 UTC
预报有效从05日的 15点(UTC)到 06日的 15点(UTC)
风速13节,风向西,有时为25节阵风
能见度10公里或以上
多云层高于3000英尺
成为
从 05日的 16点(UTC)到 05日的 18点(UTC)
风速8节,风向西
能見度: 4000
几率 40% :
短暂存在
从 05日的 17点(UTC)到 06日的 03点(UTC)
能見度: 2000
散云层高于2000英尺, 塔状积云.
阵雨
成为
从 06日的 06点(UTC)到 06日的 08点(UTC)
能见度10公里或以上
几率 30% :
短暂存在
从 06日的 11点(UTC)到 06日的 15点(UTC)
能見度: 4000
散云层高于3500英尺, 塔状积云.
小阵雨

TAF: LFOJ 051400Z 0515/0615 27013G25KT 9999 BKN030 BECMG 0516/0518 28008KT 4000 RA PROB40 TEMPO 0517/0603 2000 SHRA SCT020TCU BECMG 0606/0608 9999 NSW PROB30 TEMPO 0611/0615 4000 -SHRA SCT035TCU

超过4000个机场的气象观测和天气预报(METAR&TAF报告)。

可查询的气象台以黄色和红色小点在地图上表示。

将鼠标移到小点上方,可查看气象台名称。

然后点击查看天气观测和预报。

如需切换地图:点击带黑十字的绿色按钮放大地图;点击带横线的绿色按钮缩小地图;或者点击绿色箭头查看邻近地区的地图。


METAR-TAF: